sensor_id;sensor_type;location;lat;lon;timestamp;P1;P2;P0
67802;PMS5003;72185;51.378;-1.342;2023-09-19T00:00:49;0;0;
67802;PMS5003;72185;51.378;-1.342;2023-09-19T00:03:15;2;1;
67802;PMS5003;72185;51.378;-1.342;2023-09-19T00:05:40;0;0;
67802;PMS5003;72185;51.378;-1.342;2023-09-19T00:08:06;0;0;
67802;PMS5003;72185;51.378;-1.342;2023-09-19T00:10:32;1;0;
67802;PMS5003;72185;51.378;-1.342;2023-09-19T00:12:57;1;1;
67802;PMS5003;72185;51.378;-1.342;2023-09-19T00:15:22;1;1;
67802;PMS5003;72185;51.378;-1.342;2023-09-19T00:17:47;0;0;
67802;PMS5003;72185;51.378;-1.342;2023-09-19T00:20:13;2;1;
67802;PMS5003;72185;51.378;-1.342;2023-09-19T00:22:39;2;2;
67802;PMS5003;72185;51.378;-1.342;2023-09-19T00:25:08;2;2;
67802;PMS5003;72185;51.378;-1.342;2023-09-19T00:27:29;1;1;
67802;PMS5003;72185;51.378;-1.342;2023-09-19T00:29:54;2;2;
67802;PMS5003;72185;51.378;-1.342;2023-09-19T00:32:20;2;2;
67802;PMS5003;72185;51.378;-1.342;2023-09-19T00:34:45;1;1;
67802;PMS5003;72185;51.378;-1.342;2023-09-19T00:37:11;1;0;
67802;PMS5003;72185;51.378;-1.342;2023-09-19T00:39:36;2;2;
67802;PMS5003;72185;51.378;-1.342;2023-09-19T00:42:01;2;2;
67802;PMS5003;72185;51.378;-1.342;2023-09-19T00:44:27;1;1;
67802;PMS5003;72185;51.378;-1.342;2023-09-19T00:46:52;2;1;
67802;PMS5003;72185;51.378;-1.342;2023-09-19T00:49:18;1;1;
67802;PMS5003;72185;51.378;-1.342;2023-09-19T00:51:43;1;1;
67802;PMS5003;72185;51.378;-1.342;2023-09-19T00:54:08;1;1;
67802;PMS5003;72185;51.378;-1.342;2023-09-19T00:56:34;1;0;
67802;PMS5003;72185;51.378;-1.342;2023-09-19T00:58:59;1;1;
67802;PMS5003;72185;51.378;-1.342;2023-09-19T01:01:25;1;1;
67802;PMS5003;72185;51.378;-1.342;2023-09-19T01:03:50;1;1;
67802;PMS5003;72185;51.378;-1.342;2023-09-19T01:06:16;1;1;
67802;PMS5003;72185;51.378;-1.342;2023-09-19T01:08:41;1;0;
67802;PMS5003;72185;51.378;-1.342;2023-09-19T01:11:10;1;1;
67802;PMS5003;72185;51.378;-1.342;2023-09-19T01:13:34;1;1;
67802;PMS5003;72185;51.378;-1.342;2023-09-19T01:15:59;1;1;
67802;PMS5003;72185;51.378;-1.342;2023-09-19T01:18:26;1;1;
67802;PMS5003;72185;51.378;-1.342;2023-09-19T01:20:52;1;1;
67802;PMS5003;72185;51.378;-1.342;2023-09-19T01:23:16;2;2;
67802;PMS5003;72185;51.378;-1.342;2023-09-19T01:28:07;1;1;
67802;PMS5003;72185;51.378;-1.342;2023-09-19T01:30:31;2;2;
67802;PMS5003;72185;51.378;-1.342;2023-09-19T01:32:55;1;1;
67802;PMS5003;72185;51.378;-1.342;2023-09-19T01:35:20;1;1;
67802;PMS5003;72185;51.378;-1.342;2023-09-19T01:37:46;1;1;
67802;PMS5003;72185;51.378;-1.342;2023-09-19T01:40:12;1;1;
67802;PMS5003;72185;51.378;-1.342;2023-09-19T01:42:37;1;1;
67802;PMS5003;72185;51.378;-1.342;2023-09-19T01:45:03;1;1;
67802;PMS5003;72185;51.378;-1.342;2023-09-19T01:47:28;1;1;
67802;PMS5003;72185;51.378;-1.342;2023-09-19T01:49:55;1;1;
67802;PMS5003;72185;51.378;-1.342;2023-09-19T01:52:18;2;1;
67802;PMS5003;72185;51.378;-1.342;2023-09-19T01:54:46;1;1;
67802;PMS5003;72185;51.378;-1.342;2023-09-19T01:57:09;2;2;
67802;PMS5003;72185;51.378;-1.342;2023-09-19T01:59:36;0;0;
67802;PMS5003;72185;51.378;-1.342;2023-09-19T02:02:00;3;2;
67802;PMS5003;72185;51.378;-1.342;2023-09-19T02:04:25;1;1;
67802;PMS5003;72185;51.378;-1.342;2023-09-19T02:06:51;1;1;
67802;PMS5003;72185;51.378;-1.342;2023-09-19T02:09:16;1;1;
67802;PMS5003;72185;51.378;-1.342;2023-09-19T02:11:41;2;2;
67802;PMS5003;72185;51.378;-1.342;2023-09-19T02:14:07;3;2;
67802;PMS5003;72185;51.378;-1.342;2023-09-19T02:16:32;0;0;
67802;PMS5003;72185;51.378;-1.342;2023-09-19T02:18:58;1;1;
67802;PMS5003;72185;51.378;-1.342;2023-09-19T02:21:23;1;1;
67802;PMS5003;72185;51.378;-1.342;2023-09-19T02:23:49;1;1;
67802;PMS5003;72185;51.378;-1.342;2023-09-19T02:26:14;1;1;
67802;PMS5003;72185;51.378;-1.342;2023-09-19T02:28:39;1;1;
67802;PMS5003;72185;51.378;-1.342;2023-09-19T02:31:05;1;1;
67802;PMS5003;72185;51.378;-1.342;2023-09-19T02:33:30;1;1;
67802;PMS5003;72185;51.378;-1.342;2023-09-19T02:35:56;1;1;
67802;PMS5003;72185;51.378;-1.342;2023-09-19T02:38:21;1;1;
67802;PMS5003;72185;51.378;-1.342;2023-09-19T02:40:46;0;0;
67802;PMS5003;72185;51.378;-1.342;2023-09-19T02:43:12;1;1;
67802;PMS5003;72185;51.378;-1.342;2023-09-19T02:45:37;1;1;
67802;PMS5003;72185;51.378;-1.342;2023-09-19T02:48:03;1;1;
67802;PMS5003;72185;51.378;-1.342;2023-09-19T02:50:28;1;1;
67802;PMS5003;72185;51.378;-1.342;2023-09-19T02:52:53;3;3;
67802;PMS5003;72185;51.378;-1.342;2023-09-19T02:55:20;0;0;
67802;PMS5003;72185;51.378;-1.342;2023-09-19T02:57:46;2;2;
67802;PMS5003;72185;51.378;-1.342;2023-09-19T03:00:10;1;1;
67802;PMS5003;72185;51.378;-1.342;2023-09-19T03:02:35;0;0;
67802;PMS5003;72185;51.378;-1.342;2023-09-19T03:05:00;2;1;
67802;PMS5003;72185;51.378;-1.342;2023-09-19T03:07:26;1;1;
67802;PMS5003;72185;51.378;-1.342;2023-09-19T03:09:51;1;0;
67802;PMS5003;72185;51.378;-1.342;2023-09-19T03:12:17;1;1;
67802;PMS5003;72185;51.378;-1.342;2023-09-19T03:14:42;1;1;
67802;PMS5003;72185;51.378;-1.342;2023-09-19T03:17:07;1;1;
67802;PMS5003;72185;51.378;-1.342;2023-09-19T03:19:33;1;0;
67802;PMS5003;72185;51.378;-1.342;2023-09-19T03:21:58;2;2;
67802;PMS5003;72185;51.378;-1.342;2023-09-19T03:24:24;1;1;
67802;PMS5003;72185;51.378;-1.342;2023-09-19T03:26:49;1;0;
67802;PMS5003;72185;51.378;-1.342;2023-09-19T03:29:14;1;1;
67802;PMS5003;72185;51.378;-1.342;2023-09-19T03:31:40;1;0;
67802;PMS5003;72185;51.378;-1.342;2023-09-19T03:34:05;1;1;
67802;PMS5003;72185;51.378;-1.342;2023-09-19T03:36:31;2;1;
67802;PMS5003;72185;51.378;-1.342;2023-09-19T03:38:56;0;0;
67802;PMS5003;72185;51.378;-1.342;2023-09-19T03:41:22;1;1;
67802;PMS5003;72185;51.378;-1.342;2023-09-19T03:43:47;1;1;
67802;PMS5003;72185;51.378;-1.342;2023-09-19T03:46:12;1;1;
67802;PMS5003;72185;51.378;-1.342;2023-09-19T03:48:38;1;1;
67802;PMS5003;72185;51.378;-1.342;2023-09-19T03:51:03;1;0;
67802;PMS5003;72185;51.378;-1.342;2023-09-19T03:53:29;1;1;
67802;PMS5003;72185;51.378;-1.342;2023-09-19T03:55:54;1;1;
67802;PMS5003;72185;51.378;-1.342;2023-09-19T03:58:19;0;0;
67802;PMS5003;72185;51.378;-1.342;2023-09-19T04:00:45;1;1;
67802;PMS5003;72185;51.378;-1.342;2023-09-19T04:03:10;1;1;
67802;PMS5003;72185;51.378;-1.342;2023-09-19T04:05:36;1;0;
67802;PMS5003;72185;51.378;-1.342;2023-09-19T04:08:01;2;2;
67802;PMS5003;72185;51.378;-1.342;2023-09-19T04:10:27;0;0;
67802;PMS5003;72185;51.378;-1.342;2023-09-19T04:12:52;1;1;
67802;PMS5003;72185;51.378;-1.342;2023-09-19T04:15:17;2;2;
67802;PMS5003;72185;51.378;-1.342;2023-09-19T04:17:43;1;1;
67802;PMS5003;72185;51.378;-1.342;2023-09-19T04:20:09;0;0;
67802;PMS5003;72185;51.378;-1.342;2023-09-19T04:22:34;1;1;
67802;PMS5003;72185;51.378;-1.342;2023-09-19T04:24:59;2;1;
67802;PMS5003;72185;51.378;-1.342;2023-09-19T04:27:24;1;1;
67802;PMS5003;72185;51.378;-1.342;2023-09-19T04:29:50;1;1;
67802;PMS5003;72185;51.378;-1.342;2023-09-19T04:32:15;2;2;
67802;PMS5003;72185;51.378;-1.342;2023-09-19T04:34:41;1;1;
67802;PMS5003;72185;51.378;-1.342;2023-09-19T04:37:07;1;1;
67802;PMS5003;72185;51.378;-1.342;2023-09-19T04:39:31;2;2;
67802;PMS5003;72185;51.378;-1.342;2023-09-19T04:41:57;0;0;
67802;PMS5003;72185;51.378;-1.342;2023-09-19T04:44:22;0;0;
67802;PMS5003;72185;51.378;-1.342;2023-09-19T04:46:48;0;0;
67802;PMS5003;72185;51.378;-1.342;2023-09-19T04:49:13;1;1;
67802;PMS5003;72185;51.378;-1.342;2023-09-19T04:51:39;1;1;
67802;PMS5003;72185;51.378;-1.342;2023-09-19T04:54:04;2;1;
67802;PMS5003;72185;51.378;-1.342;2023-09-19T04:56:30;1;1;
67802;PMS5003;72185;51.378;-1.342;2023-09-19T04:58:55;1;1;
67802;PMS5003;72185;51.378;-1.342;2023-09-19T05:01:20;1;1;
67802;PMS5003;72185;51.378;-1.342;2023-09-19T05:03:46;1;1;
67802;PMS5003;72185;51.378;-1.342;2023-09-19T05:06:11;0;0;
67802;PMS5003;72185;51.378;-1.342;2023-09-19T05:08:37;2;2;
67802;PMS5003;72185;51.378;-1.342;2023-09-19T05:11:02;0;0;
67802;PMS5003;72185;51.378;-1.342;2023-09-19T05:13:28;1;0;
67802;PMS5003;72185;51.378;-1.342;2023-09-19T05:15:53;1;0;
67802;PMS5003;72185;51.378;-1.342;2023-09-19T05:18:18;0;0;
67802;PMS5003;72185;51.378;-1.342;2023-09-19T05:20:44;0;0;
67802;PMS5003;72185;51.378;-1.342;2023-09-19T05:23:09;2;1;
67802;PMS5003;72185;51.378;-1.342;2023-09-19T05:25:35;1;1;
67802;PMS5003;72185;51.378;-1.342;2023-09-19T05:28:00;1;1;
67802;PMS5003;72185;51.378;-1.342;2023-09-19T05:30:26;1;1;
67802;PMS5003;72185;51.378;-1.342;2023-09-19T05:32:51;0;0;
67802;PMS5003;72185;51.378;-1.342;2023-09-19T05:35:16;1;1;
67802;PMS5003;72185;51.378;-1.342;2023-09-19T05:37:42;1;1;
67802;PMS5003;72185;51.378;-1.342;2023-09-19T05:40:08;1;1;
67802;PMS5003;72185;51.378;-1.342;2023-09-19T05:42:33;0;0;
67802;PMS5003;72185;51.378;-1.342;2023-09-19T05:44:58;1;1;
67802;PMS5003;72185;51.378;-1.342;2023-09-19T05:47:23;1;1;
67802;PMS5003;72185;51.378;-1.342;2023-09-19T05:49:49;1;1;
67802;PMS5003;72185;51.378;-1.342;2023-09-19T05:52:14;0;0;
67802;PMS5003;72185;51.378;-1.342;2023-09-19T05:54:40;0;0;
67802;PMS5003;72185;51.378;-1.342;2023-09-19T05:57:05;0;0;
67802;PMS5003;72185;51.378;-1.342;2023-09-19T05:59:31;1;1;
67802;PMS5003;72185;51.378;-1.342;2023-09-19T06:01:56;1;0;
67802;PMS5003;72185;51.378;-1.342;2023-09-19T06:04:21;1;1;
67802;PMS5003;72185;51.378;-1.342;2023-09-19T06:06:47;1;0;
67802;PMS5003;72185;51.378;-1.342;2023-09-19T06:09:12;1;1;
67802;PMS5003;72185;51.378;-1.342;2023-09-19T06:11:38;1;0;
67802;PMS5003;72185;51.378;-1.342;2023-09-19T06:14:03;1;1;
67802;PMS5003;72185;51.378;-1.342;2023-09-19T06:16:29;0;0;
67802;PMS5003;72185;51.378;-1.342;2023-09-19T06:18:54;1;0;
67802;PMS5003;72185;51.378;-1.342;2023-09-19T06:21:19;0;0;
67802;PMS5003;72185;51.378;-1.342;2023-09-19T06:23:45;1;1;
67802;PMS5003;72185;51.378;-1.342;2023-09-19T06:26:10;1;1;
67802;PMS5003;72185;51.378;-1.342;2023-09-19T06:28:36;1;1;
67802;PMS5003;72185;51.378;-1.342;2023-09-19T06:31:02;1;1;
67802;PMS5003;72185;51.378;-1.342;2023-09-19T06:33:26;1;1;
67802;PMS5003;72185;51.378;-1.342;2023-09-19T06:35:52;0;0;
67802;PMS5003;72185;51.378;-1.342;2023-09-19T06:38:17;1;1;
67802;PMS5003;72185;51.378;-1.342;2023-09-19T06:40:43;1;1;
67802;PMS5003;72185;51.378;-1.342;2023-09-19T06:43:09;0;0;
67802;PMS5003;72185;51.378;-1.342;2023-09-19T06:45:33;0;0;
67802;PMS5003;72185;51.378;-1.342;2023-09-19T06:47:59;2;1;
67802;PMS5003;72185;51.378;-1.342;2023-09-19T06:50:24;1;1;
67802;PMS5003;72185;51.378;-1.342;2023-09-19T06:52:50;0;0;
67802;PMS5003;72185;51.378;-1.342;2023-09-19T06:55:15;0;0;
67802;PMS5003;72185;51.378;-1.342;2023-09-19T06:57:40;1;1;
67802;PMS5003;72185;51.378;-1.342;2023-09-19T07:00:07;0;0;
67802;PMS5003;72185;51.378;-1.342;2023-09-19T07:02:31;1;0;
67802;PMS5003;72185;51.378;-1.342;2023-09-19T07:04:57;1;1;
67802;PMS5003;72185;51.378;-1.342;2023-09-19T07:07:22;0;0;
67802;PMS5003;72185;51.378;-1.342;2023-09-19T07:09:48;1;0;
67802;PMS5003;72185;51.378;-1.342;2023-09-19T07:12:13;2;1;
67802;PMS5003;72185;51.378;-1.342;2023-09-19T07:14:38;1;1;
67802;PMS5003;72185;51.378;-1.342;2023-09-19T07:17:04;1;0;
67802;PMS5003;72185;51.378;-1.342;2023-09-19T07:19:29;1;0;
67802;PMS5003;72185;51.378;-1.342;2023-09-19T07:21:55;1;0;
67802;PMS5003;72185;51.378;-1.342;2023-09-19T07:24:20;0;0;
67802;PMS5003;72185;51.378;-1.342;2023-09-19T07:26:46;1;1;
67802;PMS5003;72185;51.378;-1.342;2023-09-19T07:29:11;2;1;
67802;PMS5003;72185;51.378;-1.342;2023-09-19T07:31:36;0;0;
67802;PMS5003;72185;51.378;-1.342;2023-09-19T07:34:02;0;0;
67802;PMS5003;72185;51.378;-1.342;2023-09-19T07:36:27;1;1;
67802;PMS5003;72185;51.378;-1.342;2023-09-19T07:38:58;1;1;
67802;PMS5003;72185;51.378;-1.342;2023-09-19T07:41:18;0;0;
67802;PMS5003;72185;51.378;-1.342;2023-09-19T07:43:44;0;0;
67802;PMS5003;72185;51.378;-1.342;2023-09-19T07:46:09;1;1;
67802;PMS5003;72185;51.378;-1.342;2023-09-19T07:48:35;1;1;
67802;PMS5003;72185;51.378;-1.342;2023-09-19T07:51:01;0;0;
67802;PMS5003;72185;51.378;-1.342;2023-09-19T07:53:25;1;1;
67802;PMS5003;72185;51.378;-1.342;2023-09-19T07:55:51;2;1;
67802;PMS5003;72185;51.378;-1.342;2023-09-19T07:58:16;0;0;
67802;PMS5003;72185;51.378;-1.342;2023-09-19T08:00:41;1;1;
67802;PMS5003;72185;51.378;-1.342;2023-09-19T08:03:07;1;1;
67802;PMS5003;72185;51.378;-1.342;2023-09-19T08:05:32;2;2;
67802;PMS5003;72185;51.378;-1.342;2023-09-19T08:07:58;2;2;
67802;PMS5003;72185;51.378;-1.342;2023-09-19T08:10:23;1;1;
67802;PMS5003;72185;51.378;-1.342;2023-09-19T08:12:49;0;0;
67802;PMS5003;72185;51.378;-1.342;2023-09-19T08:15:14;1;1;
67802;PMS5003;72185;51.378;-1.342;2023-09-19T08:17:39;2;2;
67802;PMS5003;72185;51.378;-1.342;2023-09-19T08:20:05;1;1;
67802;PMS5003;72185;51.378;-1.342;2023-09-19T08:22:30;1;1;
67802;PMS5003;72185;51.378;-1.342;2023-09-19T08:24:56;1;1;
67802;PMS5003;72185;51.378;-1.342;2023-09-19T08:27:21;1;1;
67802;PMS5003;72185;51.378;-1.342;2023-09-19T08:29:46;1;1;
67802;PMS5003;72185;51.378;-1.342;2023-09-19T08:32:12;2;2;
67802;PMS5003;72185;51.378;-1.342;2023-09-19T08:34:37;1;1;
67802;PMS5003;72185;51.378;-1.342;2023-09-19T08:37:03;1;1;
67802;PMS5003;72185;51.378;-1.342;2023-09-19T08:39:28;1;1;
67802;PMS5003;72185;51.378;-1.342;2023-09-19T08:41:56;1;1;
67802;PMS5003;72185;51.378;-1.342;2023-09-19T08:44:19;0;0;
67802;PMS5003;72185;51.378;-1.342;2023-09-19T08:46:44;2;2;
67802;PMS5003;72185;51.378;-1.342;2023-09-19T08:49:13;1;1;
67802;PMS5003;72185;51.378;-1.342;2023-09-19T08:51:39;2;2;
67802;PMS5003;72185;51.378;-1.342;2023-09-19T08:54:03;1;1;
67802;PMS5003;72185;51.378;-1.342;2023-09-19T08:56:26;1;1;
67802;PMS5003;72185;51.378;-1.342;2023-09-19T08:58:53;1;1;
67802;PMS5003;72185;51.378;-1.342;2023-09-19T09:01:17;3;2;
67802;PMS5003;72185;51.378;-1.342;2023-09-19T09:03:42;2;2;
67802;PMS5003;72185;51.378;-1.342;2023-09-19T09:06:08;2;1;
67802;PMS5003;72185;51.378;-1.342;2023-09-19T09:08:33;2;1;
67802;PMS5003;72185;51.378;-1.342;2023-09-19T09:13:24;1;1;
67802;PMS5003;72185;51.378;-1.342;2023-09-19T09:15:49;2;2;
67802;PMS5003;72185;51.378;-1.342;2023-09-19T09:18:15;2;2;
67802;PMS5003;72185;51.378;-1.342;2023-09-19T09:20:40;1;1;
67802;PMS5003;72185;51.378;-1.342;2023-09-19T09:23:06;1;1;
67802;PMS5003;72185;51.378;-1.342;2023-09-19T09:28:00;2;2;
67802;PMS5003;72185;51.378;-1.342;2023-09-19T09:32:48;2;2;
67802;PMS5003;72185;51.378;-1.342;2023-09-19T09:35:13;2;2;
67802;PMS5003;72185;51.378;-1.342;2023-09-19T09:37:38;3;2;
67802;PMS5003;72185;51.378;-1.342;2023-09-19T09:40:04;2;2;
67802;PMS5003;72185;51.378;-1.342;2023-09-19T09:42:30;2;2;
67802;PMS5003;72185;51.378;-1.342;2023-09-19T09:44:58;4;3;
67802;PMS5003;72185;51.378;-1.342;2023-09-19T09:47:22;2;1;
67802;PMS5003;72185;51.378;-1.342;2023-09-19T09:49:47;2;1;
67802;PMS5003;72185;51.378;-1.342;2023-09-19T09:52:11;1;1;
67802;PMS5003;72185;51.378;-1.342;2023-09-19T09:54:36;1;1;
67802;PMS5003;72185;51.378;-1.342;2023-09-19T09:57:03;3;3;
67802;PMS5003;72185;51.378;-1.342;2023-09-19T10:01:52;2;2;
67802;PMS5003;72185;51.378;-1.342;2023-09-19T10:06:43;5;4;
67802;PMS5003;72185;51.378;-1.342;2023-09-19T10:09:09;3;3;
67802;PMS5003;72185;51.378;-1.342;2023-09-19T10:11:34;4;3;
67802;PMS5003;72185;51.378;-1.342;2023-09-19T10:14:00;2;2;
67802;PMS5003;72185;51.378;-1.342;2023-09-19T10:16:25;2;2;
67802;PMS5003;72185;51.378;-1.342;2023-09-19T10:18:51;2;2;
67802;PMS5003;72185;51.378;-1.342;2023-09-19T10:21:16;3;2;
67802;PMS5003;72185;51.378;-1.342;2023-09-19T10:23:41;3;2;
67802;PMS5003;72185;51.378;-1.342;2023-09-19T10:26:07;3;3;
67802;PMS5003;72185;51.378;-1.342;2023-09-19T10:28:32;2;2;
67802;PMS5003;72185;51.378;-1.342;2023-09-19T10:30:58;4;3;
67802;PMS5003;72185;51.378;-1.342;2023-09-19T10:33:24;2;2;
67802;PMS5003;72185;51.378;-1.342;2023-09-19T10:35:49;2;2;
67802;PMS5003;72185;51.378;-1.342;2023-09-19T10:38:14;4;3;
67802;PMS5003;72185;51.378;-1.342;2023-09-19T10:40:40;4;4;
67802;PMS5003;72185;51.378;-1.342;2023-09-19T10:43:05;6;5;
67802;PMS5003;72185;51.378;-1.342;2023-09-19T10:45:31;3;3;
67802;PMS5003;72185;51.378;-1.342;2023-09-19T10:47:56;3;2;
67802;PMS5003;72185;51.378;-1.342;2023-09-19T10:50:21;3;3;
67802;PMS5003;72185;51.378;-1.342;2023-09-19T10:52:47;3;3;
67802;PMS5003;72185;51.378;-1.342;2023-09-19T10:55:14;5;4;
67802;PMS5003;72185;51.378;-1.342;2023-09-19T10:57:37;3;3;
67802;PMS5003;72185;51.378;-1.342;2023-09-19T11:00:03;5;4;
67802;PMS5003;72185;51.378;-1.342;2023-09-19T11:02:28;3;3;
67802;PMS5003;72185;51.378;-1.342;2023-09-19T11:04:54;2;2;
67802;PMS5003;72185;51.378;-1.342;2023-09-19T11:07:19;4;2;
67802;PMS5003;72185;51.378;-1.342;2023-09-19T11:09:46;3;3;
67802;PMS5003;72185;51.378;-1.342;2023-09-19T11:12:10;2;2;
67802;PMS5003;72185;51.378;-1.342;2023-09-19T11:14:37;4;4;
67802;PMS5003;72185;51.378;-1.342;2023-09-19T11:21:52;3;3;
67802;PMS5003;72185;51.378;-1.342;2023-09-19T11:26:43;3;3;
67802;PMS5003;72185;51.378;-1.342;2023-09-19T11:36:29;4;4;
67802;PMS5003;72185;51.378;-1.342;2023-09-19T11:43:40;2;2;
67802;PMS5003;72185;51.378;-1.342;2023-09-19T11:46:06;3;3;
67802;PMS5003;72185;51.378;-1.342;2023-09-19T11:48:31;2;2;
67802;PMS5003;72185;51.378;-1.342;2023-09-19T11:50:57;3;3;
67802;PMS5003;72185;51.378;-1.342;2023-09-19T11:53:22;3;2;
67802;PMS5003;72185;51.378;-1.342;2023-09-19T11:55:48;1;1;
67802;PMS5003;72185;51.378;-1.342;2023-09-19T11:58:15;4;4;
67802;PMS5003;72185;51.378;-1.342;2023-09-19T12:00:38;1;1;
67802;PMS5003;72185;51.378;-1.342;2023-09-19T12:03:05;2;2;
67802;PMS5003;72185;51.378;-1.342;2023-09-19T12:05:29;2;2;
67802;PMS5003;72185;51.378;-1.342;2023-09-19T12:07:55;6;4;
67802;PMS5003;72185;51.378;-1.342;2023-09-19T12:10:20;4;4;
67802;PMS5003;72185;51.378;-1.342;2023-09-19T12:12:46;3;3;
67802;PMS5003;72185;51.378;-1.342;2023-09-19T12:15:11;2;2;
67802;PMS5003;72185;51.378;-1.342;2023-09-19T12:17:37;2;1;
67802;PMS5003;72185;51.378;-1.342;2023-09-19T12:20:02;2;2;
67802;PMS5003;72185;51.378;-1.342;2023-09-19T12:22:28;5;3;
67802;PMS5003;72185;51.378;-1.342;2023-09-19T12:24:53;3;2;
67802;PMS5003;72185;51.378;-1.342;2023-09-19T12:27:18;3;3;
67802;PMS5003;72185;51.378;-1.342;2023-09-19T12:29:44;2;2;
67802;PMS5003;72185;51.378;-1.342;2023-09-19T12:32:09;2;2;
67802;PMS5003;72185;51.378;-1.342;2023-09-19T12:34:34;2;2;
67802;PMS5003;72185;51.378;-1.342;2023-09-19T12:37:03;3;3;
67802;PMS5003;72185;51.378;-1.342;2023-09-19T12:39:25;3;3;
67802;PMS5003;72185;51.378;-1.342;2023-09-19T12:41:51;2;2;
67802;PMS5003;72185;51.378;-1.342;2023-09-19T12:44:16;3;3;
67802;PMS5003;72185;51.378;-1.342;2023-09-19T12:46:41;3;2;
67802;PMS5003;72185;51.378;-1.342;2023-09-19T12:51:34;3;3;
67802;PMS5003;72185;51.378;-1.342;2023-09-19T12:53:58;3;3;
67802;PMS5003;72185;51.378;-1.342;2023-09-19T12:56:23;2;2;
67802;PMS5003;72185;51.378;-1.342;2023-09-19T12:58:49;2;2;
67802;PMS5003;72185;51.378;-1.342;2023-09-19T13:01:14;2;2;
67802;PMS5003;72185;51.378;-1.342;2023-09-19T13:03:39;3;2;
67802;PMS5003;72185;51.378;-1.342;2023-09-19T13:06:05;2;2;
67802;PMS5003;72185;51.378;-1.342;2023-09-19T13:08:31;4;3;
67802;PMS5003;72185;51.378;-1.342;2023-09-19T13:11:01;4;4;
67802;PMS5003;72185;51.378;-1.342;2023-09-19T13:13:23;3;3;
67802;PMS5003;72185;51.378;-1.342;2023-09-19T13:15:51;2;2;
67802;PMS5003;72185;51.378;-1.342;2023-09-19T13:18:12;2;2;
67802;PMS5003;72185;51.378;-1.342;2023-09-19T13:20:37;4;4;
67802;PMS5003;72185;51.378;-1.342;2023-09-19T13:23:03;2;2;
67802;PMS5003;72185;51.378;-1.342;2023-09-19T13:25:28;3;2;
67802;PMS5003;72185;51.378;-1.342;2023-09-19T13:27:54;1;1;
67802;PMS5003;72185;51.378;-1.342;2023-09-19T13:30:19;3;3;
67802;PMS5003;72185;51.378;-1.342;2023-09-19T13:32:44;2;2;
67802;PMS5003;72185;51.378;-1.342;2023-09-19T13:35:10;2;2;
67802;PMS5003;72185;51.378;-1.342;2023-09-19T13:37:35;2;1;
67802;PMS5003;72185;51.378;-1.342;2023-09-19T13:40:00;2;2;
67802;PMS5003;72185;51.378;-1.342;2023-09-19T13:42:26;2;2;
67802;PMS5003;72185;51.378;-1.342;2023-09-19T13:44:51;3;3;
67802;PMS5003;72185;51.378;-1.342;2023-09-19T13:47:17;2;1;
67802;PMS5003;72185;51.378;-1.342;2023-09-19T13:49:42;1;1;
67802;PMS5003;72185;51.378;-1.342;2023-09-19T13:52:08;2;2;
67802;PMS5003;72185;51.378;-1.342;2023-09-19T13:54:33;2;1;
67802;PMS5003;72185;51.378;-1.342;2023-09-19T13:56:58;2;2;
67802;PMS5003;72185;51.378;-1.342;2023-09-19T13:59:24;2;2;
67802;PMS5003;72185;51.378;-1.342;2023-09-19T14:01:49;1;1;
67802;PMS5003;72185;51.378;-1.342;2023-09-19T14:04:15;2;1;
67802;PMS5003;72185;51.378;-1.342;2023-09-19T14:06:41;2;2;
67802;PMS5003;72185;51.378;-1.342;2023-09-19T14:09:05;2;2;
67802;PMS5003;72185;51.378;-1.342;2023-09-19T14:11:31;1;1;
67802;PMS5003;72185;51.378;-1.342;2023-09-19T14:13:56;1;1;
67802;PMS5003;72185;51.378;-1.342;2023-09-19T14:16:22;3;2;
67802;PMS5003;72185;51.378;-1.342;2023-09-19T14:18:47;4;3;
67802;PMS5003;72185;51.378;-1.342;2023-09-19T14:21:13;2;1;
67802;PMS5003;72185;51.378;-1.342;2023-09-19T14:23:38;1;1;
67802;PMS5003;72185;51.378;-1.342;2023-09-19T14:28:29;3;3;
67802;PMS5003;72185;51.378;-1.342;2023-09-19T14:30:54;2;2;
67802;PMS5003;72185;51.378;-1.342;2023-09-19T14:33:20;2;2;
67802;PMS5003;72185;51.378;-1.342;2023-09-19T14:35:45;2;2;
67802;PMS5003;72185;51.378;-1.342;2023-09-19T14:38:10;2;2;
67802;PMS5003;72185;51.378;-1.342;2023-09-19T14:40:36;2;2;
67802;PMS5003;72185;51.378;-1.342;2023-09-19T14:43:01;1;1;
67802;PMS5003;72185;51.378;-1.342;2023-09-19T14:45:27;1;1;
67802;PMS5003;72185;51.378;-1.342;2023-09-19T14:47:52;1;1;
67802;PMS5003;72185;51.378;-1.342;2023-09-19T14:50:18;1;1;
67802;PMS5003;72185;51.378;-1.342;2023-09-19T14:52:43;1;1;
67802;PMS5003;72185;51.378;-1.342;2023-09-19T14:55:08;1;1;
67802;PMS5003;72185;51.378;-1.342;2023-09-19T14:57:34;2;2;
67802;PMS5003;72185;51.378;-1.342;2023-09-19T14:59:59;2;2;
67802;PMS5003;72185;51.378;-1.342;2023-09-19T15:02:25;2;1;
67802;PMS5003;72185;51.378;-1.342;2023-09-19T15:04:51;2;2;
67802;PMS5003;72185;51.378;-1.342;2023-09-19T15:07:16;2;2;
67802;PMS5003;72185;51.378;-1.342;2023-09-19T15:09:41;2;2;
67802;PMS5003;72185;51.378;-1.342;2023-09-19T15:12:07;2;2;
67802;PMS5003;72185;51.378;-1.342;2023-09-19T15:14:32;1;1;
67802;PMS5003;72185;51.378;-1.342;2023-09-19T15:16:57;3;3;
67802;PMS5003;72185;51.378;-1.342;2023-09-19T15:19:23;2;2;
67802;PMS5003;72185;51.378;-1.342;2023-09-19T15:21:48;3;3;
67802;PMS5003;72185;51.378;-1.342;2023-09-19T15:24:14;3;2;
67802;PMS5003;72185;51.378;-1.342;2023-09-19T15:26:39;2;2;
67802;PMS5003;72185;51.378;-1.342;2023-09-19T15:29:05;0;0;
67802;PMS5003;72185;51.378;-1.342;2023-09-19T15:31:30;3;2;
67802;PMS5003;72185;51.378;-1.342;2023-09-19T15:33:55;4;3;
67802;PMS5003;72185;51.378;-1.342;2023-09-19T15:36:21;1;1;
67802;PMS5003;72185;51.378;-1.342;2023-09-19T15:41:11;3;2;
67802;PMS5003;72185;51.378;-1.342;2023-09-19T15:43:37;1;1;
67802;PMS5003;72185;51.378;-1.342;2023-09-19T15:46:02;2;1;
67802;PMS5003;72185;51.378;-1.342;2023-09-19T15:48:28;2;2;
67802;PMS5003;72185;51.378;-1.342;2023-09-19T15:50:53;2;1;
67802;PMS5003;72185;51.378;-1.342;2023-09-19T15:53:19;2;2;
67802;PMS5003;72185;51.378;-1.342;2023-09-19T15:55:44;2;2;
67802;PMS5003;72185;51.378;-1.342;2023-09-19T15:58:09;1;1;
67802;PMS5003;72185;51.378;-1.342;2023-09-19T16:00:35;2;2;
67802;PMS5003;72185;51.378;-1.342;2023-09-19T16:03:00;1;1;
67802;PMS5003;72185;51.378;-1.342;2023-09-19T16:05:26;2;2;
67802;PMS5003;72185;51.378;-1.342;2023-09-19T16:07:51;3;3;
67802;PMS5003;72185;51.378;-1.342;2023-09-19T16:10:16;1;1;
67802;PMS5003;72185;51.378;-1.342;2023-09-19T16:12:42;2;2;
67802;PMS5003;72185;51.378;-1.342;2023-09-19T16:15:07;2;1;
67802;PMS5003;72185;51.378;-1.342;2023-09-19T16:17:33;2;2;
67802;PMS5003;72185;51.378;-1.342;2023-09-19T16:19:58;2;2;
67802;PMS5003;72185;51.378;-1.342;2023-09-19T16:22:23;2;2;
67802;PMS5003;72185;51.378;-1.342;2023-09-19T16:24:49;2;2;
67802;PMS5003;72185;51.378;-1.342;2023-09-19T16:27:14;4;4;
67802;PMS5003;72185;51.378;-1.342;2023-09-19T16:29:40;4;3;
67802;PMS5003;72185;51.378;-1.342;2023-09-19T16:32:05;8;7;
67802;PMS5003;72185;51.378;-1.342;2023-09-19T16:34:31;12;11;
67802;PMS5003;72185;51.378;-1.342;2023-09-19T16:36:57;9;9;
67802;PMS5003;72185;51.378;-1.342;2023-09-19T16:39:22;8;8;
67802;PMS5003;72185;51.378;-1.342;2023-09-19T16:41:47;8;8;
67802;PMS5003;72185;51.378;-1.342;2023-09-19T16:44:13;8;8;
67802;PMS5003;72185;51.378;-1.342;2023-09-19T16:46:38;9;8;
67802;PMS5003;72185;51.378;-1.342;2023-09-19T16:49:03;9;8;
67802;PMS5003;72185;51.378;-1.342;2023-09-19T16:51:29;8;8;
67802;PMS5003;72185;51.378;-1.342;2023-09-19T16:53:54;11;11;
67802;PMS5003;72185;51.378;-1.342;2023-09-19T16:56:19;11;8;
67802;PMS5003;72185;51.378;-1.342;2023-09-19T16:58:45;18;18;
67802;PMS5003;72185;51.378;-1.342;2023-09-19T17:01:10;18;18;